Time;durP1;ratioP1;P1;durP2;ratioP2;P2;SDS_P1;SDS_P2;PMS_P1;PMS_P2;Temp;Humidity;BMP_temperature;BMP_pressure;BME280_temperature;BME280_humidity;BME280_pressure;Samples;Min_cycle;Max_cycle;Signal;HPM_P1;HPM_P2
2022/01/14 00:02:19;;;;;;;;;;;;;;;0.10;100.00;102636.44;4981913;28;19920;-74
2022/01/14 00:05:03;;;;;;;;;;;;;;;0.11;100.00;102643.41;4996370;28;19984;-74
2022/01/14 00:07:47;;;;;;;;;;;;;;;0.14;100.00;102645.13;4981287;28;19920;-74
2022/01/14 00:10:32;;;;;;;;;;;;;;;0.11;100.00;102653.91;4996542;28;19920;-74
2022/01/14 00:13:43;;;;;;;;;;;;;;;0.19;100.00;102659.03;4996307;28;20000;-74
2022/01/14 00:16:20;;;;;;;;;;;;;;;0.20;100.00;102650.28;4984254;28;19921;-74
2022/01/14 00:19:04;;;;;;;;;;;;;;;0.28;100.00;102646.69;4996409;28;19921;-74
2022/01/14 00:21:48;;;;;;;;;;;;;;;0.28;100.00;102648.41;4981392;28;19924;-74
2022/01/14 00:31:41;;;;;;;;;;;;;;;0.26;100.00;102648.47;4996040;28;19944;-74
2022/01/14 00:33:42;;;;;;;;;;;;;;;0.31;100.00;102649.25;4995965;28;20440;-73
2022/01/14 00:36:26;;;;;;;;;;;;;;;0.23;100.00;102643.22;4996139;28;19960;-74
2022/01/14 00:39:10;;;;;;;;;;;;;;;0.31;100.00;102636.13;4981011;28;19980;-74
2022/01/14 00:41:54;;;;;;;;;;;;;;;0.23;100.00;102635.38;4980961;28;20274;-74
2022/01/14 00:44:38;;;;;;;;;;;;;;;0.24;100.00;102637.09;4995898;28;19971;-74
2022/01/14 00:47:22;;;;;;;;;;;;;;;0.24;100.00;102626.59;4980978;28;19965;-74
2022/01/14 00:50:11;;;;;;;;;;;;;;;0.23;100.00;102635.38;4980849;28;19940;-74
2022/01/14 00:52:54;;;;;;;;;;;;;;;0.22;100.00;102630.16;4994798;28;19920;-74
2022/01/14 00:55:46;;;;;;;;;;;;;;;0.28;100.00;102632.69;4967303;28;19936;-74
2022/01/14 01:01:33;;;;;;;;;;;;;;;0.29;100.00;102640.53;4995370;28;19924;-74
2022/01/14 01:04:21;;;;;;;;;;;;;;;0.35;100.00;102629.09;4980699;28;19921;-74
2022/01/14 01:07:07;;;;;;;;;;;;;;;0.40;100.00;102632.47;4980266;28;19923;-74
2022/01/14 01:09:51;;;;;;;;;;;;;;;0.48;100.00;102631.50;4980710;28;19964;-74
2022/01/14 01:12:57;;;;;;;;;;;;;;;0.46;100.00;102643.78;4995217;28;19940;-74
2022/01/14 01:15:41;;;;;;;;;;;;;;;0.51;100.00;102639.31;4995278;28;19920;-74
2022/01/14 01:18:25;;;;;;;;;;;;;;;0.54;100.00;102636.63;4995275;28;19921;-74
2022/01/14 01:21:09;;;;;;;;;;;;;;;0.68;100.00;102637.28;4980199;28;19921;-74
2022/01/14 01:23:53;;;;;;;;;;;;;;;0.64;100.00;102637.38;4980141;28;19921;-74
2022/01/14 01:26:40;;;;;;;;;;;;;;;0.61;100.00;102635.66;4994858;28;19925;-74
2022/01/14 01:32:11;;;;;;;;;;;;;;;0.48;100.00;102636.75;4980721;28;19924;-74
2022/01/14 01:34:54;;;;;;;;;;;;;;;0.46;100.00;102638.53;4994942;28;20380;-74
2022/01/14 01:37:38;;;;;;;;;;;;;;;0.50;100.00;102634.97;4979876;28;19928;-74
2022/01/14 01:40:22;;;;;;;;;;;;;;;0.57;100.00;102633.97;4980160;28;19924;-74
2022/01/14 01:43:09;;;;;;;;;;;;;;;0.45;100.00;102636.78;4966433;28;19971;-74
2022/01/14 01:45:55;;;;;;;;;;;;;;;0.41;100.00;102635.09;4980331;28;19924;-74
2022/01/14 01:48:39;;;;;;;;;;;;;;;0.47;100.00;102628.88;4980271;28;20421;-74
2022/01/14 01:51:23;;;;;;;;;;;;;;;0.50;100.00;102628.81;4980242;28;19941;-73
2022/01/14 01:54:07;;;;;;;;;;;;;;;0.52;100.00;102627.06;4979885;28;19920;-74
2022/01/14 01:56:51;;;;;;;;;;;;;;;0.38;100.00;102624.66;4979565;28;19921;-74
2022/01/14 01:59:35;;;;;;;;;;;;;;;0.48;100.00;102626.25;4979760;28;19964;-73
2022/01/14 02:02:19;;;;;;;;;;;;;;;0.48;100.00;102626.25;4994602;28;19983;-74
2022/01/14 02:05:03;;;;;;;;;;;;;;;0.52;100.00;102612.19;4979429;28;19983;-74
2022/01/14 02:07:47;;;;;;;;;;;;;;;0.45;100.00;102621.03;4994054;28;20388;-74
2022/01/14 02:10:31;;;;;;;;;;;;;;;0.57;100.00;102615.59;4966025;28;20025;-74
2022/01/14 02:13:16;;;;;;;;;;;;;;;0.65;100.00;102618.09;4994077;28;20385;-73
2022/01/14 02:19:00;;;;;;;;;;;;;;;0.70;100.00;102627.63;4979794;28;19986;-74
2022/01/14 02:24:58;;;;;;;;;;;;;;;0.55;100.00;102622.59;4994288;28;19980;-74
2022/01/14 02:27:42;;;;;;;;;;;;;;;0.37;100.00;102633.41;4966552;28;19921;-74
2022/01/14 02:30:26;;;;;;;;;;;;;;;0.22;100.00;102628.38;4979216;28;19932;-74
2022/01/14 02:33:10;;;;;;;;;;;;;;;0.08;100.00;102629.47;4979116;28;20329;-73
2022/01/14 02:35:55;;;;;;;;;;;;;;;0.13;100.00;102625.91;4979252;28;19948;-74
2022/01/14 02:38:39;;;;;;;;;;;;;;;0.13;100.00;102620.66;4993804;28;19921;-74
2022/01/14 02:41:23;;;;;;;;;;;;;;;0.09;100.00;102620.72;4979166;28;19960;-74
2022/01/14 02:44:09;;;;;;;;;;;;;;;0.02;100.00;102619.94;4979256;28;19921;-74
2022/01/14 02:46:56;;;;;;;;;;;;;;;-0.03;100.00;102610.41;4979106;28;19975;-74
2022/01/14 02:49:40;;;;;;;;;;;;;;;-0.03;100.00;102608.66;4993614;28;20040;-73
2022/01/14 02:52:41;;;;;;;;;;;;;;;-0.01;100.00;102609.50;4965406;28;19940;-74
2022/01/14 02:55:30;;;;;;;;;;;;;;;0.01;100.00;102599.00;4981432;28;20004;-73
2022/01/14 02:58:14;;;;;;;;;;;;;;;-0.03;100.00;102596.44;4979602;28;19984;-74
2022/01/14 03:00:59;;;;;;;;;;;;;;;0.02;100.00;102590.25;4964832;28;19920;-73
2022/01/14 03:03:45;;;;;;;;;;;;;;;-0.04;100.00;102576.34;4965124;28;19968;-73
2022/01/14 03:06:29;;;;;;;;;;;;;;;-0.20;100.00;102575.72;4965123;28;19928;-74
2022/01/14 03:09:12;;;;;;;;;;;;;;;-0.21;100.00;102570.47;4978950;28;20420;-74
2022/01/14 03:11:56;;;;;;;;;;;;;;;-0.20;100.00;102567.84;4979142;28;19920;-74
2022/01/14 03:14:40;;;;;;;;;;;;;;;-0.31;100.00;102568.88;4979569;28;19936;-74
2022/01/14 03:17:24;;;;;;;;;;;;;;;-0.54;100.00;102566.53;4997585;28;19920;-73
2022/01/14 03:20:10;;;;;;;;;;;;;;;-0.56;100.00;102570.06;4968752;28;19944;-74
2022/01/14 03:23:04;;;;;;;;;;;;;;;-0.52;100.00;102561.28;4982877;28;19960;-74
2022/01/14 03:25:48;;;;;;;;;;;;;;;-0.52;100.00;102569.16;4997244;28;20404;-74
2022/01/14 03:28:32;;;;;;;;;;;;;;;-0.61;100.00;102566.66;4982639;28;20400;-73
2022/01/14 03:31:16;;;;;;;;;;;;;;;-0.62;100.00;102563.16;4982500;28;20031;-73
2022/01/14 03:34:00;;;;;;;;;;;;;;;-0.62;100.00;102570.16;4968816;28;19920;-74
2022/01/14 03:36:44;;;;;;;;;;;;;;;-0.59;100.00;102575.34;4997037;28;19920;-74
2022/01/14 03:39:28;;;;;;;;;;;;;;;-0.54;100.00;102557.84;4982042;28;19932;-74
2022/01/14 03:42:12;;;;;;;;;;;;;;;-0.52;100.00;102567.38;4968973;28;19924;-74
2022/01/14 03:44:56;;;;;;;;;;;;;;;-0.51;100.00;102558.66;4996989;28;20332;-74
2022/01/14 03:47:40;;;;;;;;;;;;;;;-0.59;100.00;102549.16;4982075;28;20365;-74
2022/01/14 03:50:25;;;;;;;;;;;;;;;-0.67;100.00;102554.50;4982143;28;19920;-74
2022/01/14 03:53:11;;;;;;;;;;;;;;;-0.65;100.00;102555.34;4968952;28;20044;-73
2022/01/14 03:55:54;;;;;;;;;;;;;;;-0.69;100.00;102555.38;4982282;28;19921;-74
2022/01/14 03:58:39;;;;;;;;;;;;;;;-92.28;100.00;94027.53;4981932;28;20391;-74
2022/01/14 04:01:23;;;;;;;;;;;;;;;-0.51;100.00;102548.19;4982005;28;19937;-73
2022/01/14 04:04:07;;;;;;;;;;;;;;;-0.51;100.00;102555.16;4981912;28;20016;-74
2022/01/14 04:06:51;;;;;;;;;;;;;;;-0.44;100.00;102554.22;4968145;28;19929;-73
2022/01/14 04:09:42;;;;;;;;;;;;;;;-0.31;100.00;102569.72;4968523;28;19924;-74
2022/01/14 04:13:03;;;;;;;;;;;;;;;-0.30;100.00;102558.38;4968161;28;19921;-74
2022/01/14 04:15:37;;;;;;;;;;;;;;;-0.23;100.00;102564.41;4996270;28;20378;-74
2022/01/14 04:18:21;;;;;;;;;;;;;;;-0.34;100.00;102561.06;4996424;28;20048;-74
2022/01/14 04:21:05;;;;;;;;;;;;;;;-0.49;100.00;102561.25;4967942;28;19936;-74
2022/01/14 04:23:48;;;;;;;;;;;;;;;-0.51;100.00;102568.25;4981417;28;19920;-72
2022/01/14 04:26:32;;;;;;;;;;;;;;;-0.41;100.00;102560.25;4995079;28;19929;-74
2022/01/14 04:29:16;;;;;;;;;;;;;;;-0.42;100.00;102562.91;4981476;28;19952;-73
2022/01/14 04:32:00;;;;;;;;;;;;;;;-0.41;100.00;102559.41;4995925;28;20026;-74
2022/01/14 04:34:44;;;;;;;;;;;;;;;-0.36;100.00;102554.94;4981365;28;20028;-74
2022/01/14 04:37:28;;;;;;;;;;;;;;;-0.30;100.00;102557.50;4996044;28;19944;-74
2022/01/14 04:40:13;;;;;;;;;;;;;;;-0.38;100.00;102559.34;4981301;28;19932;-74
2022/01/14 04:42:59;;;;;;;;;;;;;;;-0.30;100.00;102560.13;4996001;28;19919;-73
2022/01/14 04:45:56;;;;;;;;;;;;;;;-0.22;100.00;102566.13;4981349;28;19924;-74
2022/01/14 04:48:40;;;;;;;;;;;;;;;-0.24;100.00;102557.44;4995948;28;19920;-73
2022/01/14 04:51:24;;;;;;;;;;;;;;;-0.24;100.00;102560.91;4980973;28;20023;-74
2022/01/14 04:54:08;;;;;;;;;;;;;;;-0.21;100.00;102560.84;4995870;28;20444;-74
2022/01/14 04:56:52;;;;;;;;;;;;;;;-0.16;100.00;102555.53;4995637;28;20028;-74
2022/01/14 04:59:36;;;;;;;;;;;;;;;-0.15;100.00;102547.66;4980641;28;20040;-74
2022/01/14 05:02:20;;;;;;;;;;;;;;;-0.10;100.00;102539.72;4967195;28;19964;-74
2022/01/14 05:05:04;;;;;;;;;;;;;;;-0.17;100.00;102543.31;4995524;28;19971;-74
2022/01/14 05:07:50;;;;;;;;;;;;;;;-0.41;100.00;102535.81;4980317;28;19920;-74
2022/01/14 05:10:36;;;;;;;;;;;;;;;-0.27;100.00;102552.19;4980673;28;20424;-74
2022/01/14 05:13:21;;;;;;;;;;;;;;;-0.25;100.00;102553.91;4967440;28;19976;-74
2022/01/14 05:16:04;;;;;;;;;;;;;;;-0.12;100.00;102544.97;4980599;28;20011;-74
2022/01/14 05:18:48;;;;;;;;;;;;;;;-0.08;100.00;102538.81;4995260;28;19925;-74
2022/01/14 05:21:32;;;;;;;;;;;;;;;-0.22;100.00;102534.66;4995291;28;20352;-73
2022/01/14 05:24:16;;;;;;;;;;;;;;;-0.14;100.00;102538.06;4995229;28;20373;-74
2022/01/14 05:27:00;;;;;;;;;;;;;;;-0.21;100.00;102536.41;4994952;28;20016;-74
2022/01/14 05:29:44;;;;;;;;;;;;;;;-0.16;100.00;102531.94;4980327;28;19920;-74
2022/01/14 05:32:28;;;;;;;;;;;;;;;-0.14;100.00;102535.44;4995330;28;19972;-73
2022/01/14 05:35:13;;;;;;;;;;;;;;;-0.15;100.00;102533.66;4994698;28;19924;-74
2022/01/14 05:37:57;;;;;;;;;;;;;;;-0.14;100.00;102535.44;4979932;28;19921;-74
2022/01/14 05:40:41;;;;;;;;;;;;;;;-0.12;100.00;102536.28;4966271;28;19920;-74
2022/01/14 05:43:25;;;;;;;;;;;;;;;-0.15;100.00;102531.06;4994704;28;19921;-73
2022/01/14 05:46:09;;;;;;;;;;;;;;;-0.23;100.00;102533.78;4994440;28;19925;-73
2022/01/14 05:48:53;;;;;;;;;;;;;;;-0.21;100.00;102523.28;4994529;28;19924;-73
2022/01/14 05:51:36;;;;;;;;;;;;;;;-0.20;100.00;102527.66;4979983;28;20424;-73
2022/01/14 05:54:20;;;;;;;;;;;;;;;-0.15;100.00;102525.81;4980260;28;19921;-73
2022/01/14 05:57:04;;;;;;;;;;;;;;;-0.15;100.00;102536.28;4979820;28;19960;-73
2022/01/14 05:59:48;;;;;;;;;;;;;;;-0.12;100.00;102533.66;4994576;28;19921;-73
2022/01/14 06:02:32;;;;;;;;;;;;;;;-0.11;100.00;102530.13;4994565;28;19988;-73
2022/01/14 06:05:16;;;;;;;;;;;;;;;-0.03;100.00;102531.75;4979486;28;19925;-73
2022/01/14 06:08:01;;;;;;;;;;;;;;;-0.02;100.00;102523.88;4979272;28;20005;-73
2022/01/14 06:10:44;;;;;;;;;;;;;;;0.04;100.00;102515.88;4994486;28;19919;-73
2022/01/14 06:13:29;;;;;;;;;;;;;;;-0.05;100.00;102515.16;4994287;28;19941;-72
2022/01/14 06:16:13;;;;;;;;;;;;;;;-0.06;100.00;102510.81;4979210;28;19924;-71
2022/01/14 06:18:56;;;;;;;;;;;;;;;0.01;100.00;102518.56;4979724;28;19936;-72
2022/01/14 06:21:40;;;;;;;;;;;;;;;0.11;100.00;102516.69;4979554;28;20306;-72
2022/01/14 06:24:24;;;;;;;;;;;;;;;-0.21;100.00;102528.53;4979330;28;20081;-72
2022/01/14 06:27:08;;;;;;;;;;;;;;;-0.27;100.00;102520.75;4979313;28;19961;-73
2022/01/14 06:29:52;;;;;;;;;;;;;;;-0.25;100.00;102521.63;4993867;28;20394;-72
2022/01/14 06:32:41;;;;;;;;;;;;;;;-0.18;100.00;102520.63;4979268;28;20285;-73
2022/01/14 06:35:25;;;;;;;;;;;;;;;-0.27;100.00;102519.00;4993986;28;19929;-73
2022/01/14 06:38:09;;;;;;;;;;;;;;;-0.23;100.00;102512.81;4979276;28;19964;-72
2022/01/14 06:40:53;;;;;;;;;;;;;;;-0.18;100.00;102507.50;4979203;28;20017;-73
2022/01/14 06:43:36;;;;;;;;;;;;;;;-0.30;100.00;102512.94;4993662;28;19997;-72
2022/01/14 06:46:20;;;;;;;;;;;;;;;-0.29;100.00;102512.03;4978997;28;19976;-72
2022/01/14 06:49:04;;;;;;;;;;;;;;;-0.29;100.00;102512.03;4993394;28;19921;-73
2022/01/14 06:51:48;;;;;;;;;;;;;;;-0.21;100.00;102508.41;4978846;28;19920;-73
2022/01/14 06:54:32;;;;;;;;;;;;;;;-0.20;100.00;102517.16;4965434;28;19925;-73
2022/01/14 06:57:16;;;;;;;;;;;;;;;-0.16;100.00;102522.34;4978686;28;20297;-73
2022/01/14 07:00:00;;;;;;;;;;;;;;;-0.24;100.00;102520.72;4979063;28;20330;-72
2022/01/14 07:02:44;;;;;;;;;;;;;;;-0.32;100.00;102522.59;4993719;28;20373;-72
2022/01/14 07:05:28;;;;;;;;;;;;;;;-0.38;100.00;102518.31;4978822;28;19944;-72
2022/01/14 07:08:12;;;;;;;;;;;;;;;-0.31;100.00;102519.06;4993478;28;20428;-72
2022/01/14 07:10:55;;;;;;;;;;;;;;;-0.22;100.00;102522.41;4978670;28;20082;-72
2022/01/14 07:13:39;;;;;;;;;;;;;;;-0.25;100.00;102519.84;4965328;28;20084;-72
2022/01/14 07:16:23;;;;;;;;;;;;;;;-0.18;100.00;102520.63;4978660;28;19921;-73
2022/01/14 07:19:08;;;;;;;;;;;;;;;-0.19;100.00;102532.00;4993478;28;19965;-72
2022/01/14 07:21:51;;;;;;;;;;;;;;;-0.09;100.00;102531.84;4965483;28;19920;-72
2022/01/14 07:24:36;;;;;;;;;;;;;;;-0.09;100.00;102536.22;4993423;28;19924;-73
2022/01/14 07:27:20;;;;;;;;;;;;;;;-0.04;100.00;102542.28;4993276;28;19975;-73
2022/01/14 07:30:05;;;;;;;;;;;;;;;-0.18;100.00;102533.72;4978638;28;20292;-72
2022/01/14 07:32:48;;;;;;;;;;;;;;;-0.15;100.00;102541.53;4979101;28;19920;-72
2022/01/14 07:35:32;;;;;;;;;;;;;;;-0.08;100.00;102543.19;4978676;28;19976;-73
2022/01/14 07:38:16;;;;;;;;;;;;;;;0.03;100.00;102537.75;4993296;28;20079;-73
2022/01/14 07:41:00;;;;;;;;;;;;;;;-0.11;100.00;102538.00;4993397;28;19920;-72
2022/01/14 07:43:47;;;;;;;;;;;;;;;-0.10;100.00;102534.47;4993541;28;20281;-73
2022/01/14 07:46:31;;;;;;;;;;;;;;;-0.08;100.00;102535.31;4978871;28;19924;-72
2022/01/14 07:49:15;;;;;;;;;;;;;;;-0.03;100.00;102537.88;4993415;28;19920;-72
2022/01/14 07:51:59;;;;;;;;;;;;;;;-0.02;100.00;102534.34;4978619;28;19921;-72
2022/01/14 07:54:43;;;;;;;;;;;;;;;-0.14;100.00;102533.66;4978362;28;19925;-73
2022/01/14 07:57:27;;;;;;;;;;;;;;;-0.21;100.00;102542.50;4964624;28;19921;-73
2022/01/14 08:00:11;;;;;;;;;;;;;;;-0.14;100.00;102538.06;4978540;28;19920;-73
2022/01/14 08:02:56;;;;;;;;;;;;;;;-0.23;100.00;102539.03;4981857;28;19920;-72
2022/01/14 08:05:40;;;;;;;;;;;;;;;-0.13;100.00;102539.78;4996597;28;19980;-72
2022/01/14 08:08:24;;;;;;;;;;;;;;;-0.04;100.00;102539.66;4981876;28;19921;-73
2022/01/14 08:11:08;;;;;;;;;;;;;;;0.00;100.00;102544.84;4981646;28;20329;-73
2022/01/14 08:13:52;;;;;;;;;;;;;;;0.09;100.00;102545.53;4982080;28;19921;-72
2022/01/14 08:16:36;;;;;;;;;;;;;;;-0.08;100.00;102544.91;4967781;28;19945;-73
2022/01/14 08:19:20;;;;;;;;;;;;;;;-0.11;100.00;102554.56;4981525;28;19937;-72
2022/01/14 08:22:04;;;;;;;;;;;;;;;-0.04;100.00;102545.75;4996254;28;19920;-73
2022/01/14 08:24:48;;;;;;;;;;;;;;;0.07;100.00;102549.06;4981299;28;19928;-72
2022/01/14 08:27:32;;;;;;;;;;;;;;;0.11;100.00;102551.63;4996312;28;19921;-72
2022/01/14 08:30:17;;;;;;;;;;;;;;;0.09;100.00;102550.78;4981443;28;19920;-73
2022/01/14 08:33:01;;;;;;;;;;;;;;;0.16;100.00;102555.06;4967787;28;20305;-73
2022/01/14 08:35:45;;;;;;;;;;;;;;;0.25;100.00;102559.28;4996323;28;20070;-72
2022/01/14 08:38:29;;;;;;;;;;;;;;;0.26;100.00;102563.63;4981188;28;19960;-72
2022/01/14 08:41:13;;;;;;;;;;;;;;;0.33;100.00;102558.25;4967871;28;19925;-72
2022/01/14 08:43:57;;;;;;;;;;;;;;;0.34;100.00;102556.50;4980976;28;19922;-73
2022/01/14 08:46:41;;;;;;;;;;;;;;;0.38;100.00;102545.94;4967165;28;19933;-73
2022/01/14 08:49:25;;;;;;;;;;;;;;;0.28;100.00;102544.34;4981386;28;19948;-73
2022/01/14 08:52:10;;;;;;;;;;;;;;;0.40;100.00;102548.53;4995787;28;20462;-73
2022/01/14 08:54:54;;;;;;;;;;;;;;;0.35;100.00;102551.22;4967217;28;19920;-72
2022/01/14 08:57:38;;;;;;;;;;;;;;;0.41;100.00;102547.66;4995656;28;20052;-72
2022/01/14 09:00:23;;;;;;;;;;;;;;;0.43;100.00;102546.72;4995408;28;20481;-72
2022/01/14 09:03:07;;;;;;;;;;;;;;;0.33;100.00;102541.66;4995364;28;19997;-72
2022/01/14 09:05:51;;;;;;;;;;;;;;;0.28;100.00;102544.34;4966912;28;19956;-73
2022/01/14 09:08:35;;;;;;;;;;;;;;;0.32;100.00;102535.53;4980590;28;19972;-72
2022/01/14 09:11:19;;;;;;;;;;;;;;;0.34;100.00;102544.25;4967151;28;20340;-72
2022/01/14 09:14:03;;;;;;;;;;;;;;;0.42;100.00;102546.75;4980091;28;19968;-73
2022/01/14 09:16:47;;;;;;;;;;;;;;;0.51;100.00;102547.47;4980455;28;19920;-73
2022/01/14 09:19:31;;;;;;;;;;;;;;;0.38;100.00;102548.56;4966943;28;19921;-73
2022/01/14 09:22:17;;;;;;;;;;;;;;;0.38;100.00;102551.19;4995568;28;19963;-73
2022/01/14 09:25:05;;;;;;;;;;;;;;;0.39;100.00;102552.91;4980787;28;19944;-73
2022/01/14 09:27:52;;;;;;;;;;;;;;;0.52;100.00;102548.34;4980377;28;20297;-73
2022/01/14 09:30:35;;;;;;;;;;;;;;;0.63;100.00;102552.47;4966975;28;19956;-73
2022/01/14 09:33:20;;;;;;;;;;;;;;;0.55;100.00;102543.03;4994964;28;20450;-73
2022/01/14 09:36:05;;;;;;;;;;;;;;;0.62;100.00;102545.50;4994992;28;19920;-73
2022/01/14 09:38:49;;;;;;;;;;;;;;;0.63;100.00;102547.25;4980321;28;19921;-73
2022/01/14 09:41:33;;;;;;;;;;;;;;;0.59;100.00;102545.56;4980277;28;19975;-73
2022/01/14 09:44:17;;;;;;;;;;;;;;;0.70;100.00;102543.63;4966779;28;19921;-73
2022/01/14 09:47:02;;;;;;;;;;;;;;;0.68;100.00;102552.41;4994669;28;19940;-73
2022/01/14 09:49:46;;;;;;;;;;;;;;;0.82;100.00;102559.16;4966423;28;19921;-72
2022/01/14 09:52:30;;;;;;;;;;;;;;;1.02;100.00;102557.00;4995077;28;20020;-73
2022/01/14 09:55:14;;;;;;;;;;;;;;;0.92;100.00;102565.97;4979986;28;19920;-72
2022/01/14 09:58:00;;;;;;;;;;;;;;;1.02;100.00;102564.91;4994482;28;19968;-73
2022/01/14 10:00:43;;;;;;;;;;;;;;;1.02;100.00;102572.78;4994699;28;19976;-73
2022/01/14 10:03:27;;;;;;;;;;;;;;;1.15;100.00;102563.75;4994286;28;19925;-73
2022/01/14 10:06:11;;;;;;;;;;;;;;;1.30;100.00;102559.97;4965865;28;19924;-73
2022/01/14 10:09:00;;;;;;;;;;;;;;;1.18;100.00;102563.72;4979535;28;20396;-73
2022/01/14 10:11:57;;;;;;;;;;;;;;;1.13;100.00;102565.56;4966480;28;19921;-72
2022/01/14 10:14:45;;;;;;;;;;;;;;;1.04;100.00;102570.13;4994462;28;20392;-72
2022/01/14 10:17:35;;;;;;;;;;;;;;;0.80;100.00;102571.44;5008748;23;20446;-71
2022/01/14 10:20:19;;;;;;;;;;;;;;;0.74;100.00;102571.53;5018402;28;20316;-71
2022/01/14 10:23:02;;;;;;;;;;;;;;;0.91;100.00;102563.34;5033548;28;19991;-71
2022/01/14 10:25:58;;;;;;;;;;;;;;;0.98;100.00;102563.22;5017420;28;20044;-71
2022/01/14 10:28:45;;;;;;;;;;;;;;;0.83;100.00;102560.88;4999061;28;19975;-72
2022/01/14 10:31:35;;;;;;;;;;;;;;;0.98;100.00;102555.34;5012972;28;19971;-71
2022/01/14 10:34:19;;;;;;;;;;;;;;;1.24;100.00;102550.44;4998494;28;20420;-71
2022/01/14 10:37:13;;;;;;;;;;;;;;;1.31;100.00;102541.53;4998610;28;19920;-71
2022/01/14 10:39:57;;;;;;;;;;;;;;;1.32;100.00;102537.13;5013700;28;20015;-71
2022/01/14 10:42:41;;;;;;;;;;;;;;;1.42;100.00;102534.31;4998593;28;19920;-71
2022/01/14 10:45:27;;;;;;;;;;;;;;;1.11;100.00;102525.31;5013291;28;19924;-70
2022/01/14 10:48:12;;;;;;;;;;;;;;;1.13;100.00;102512.16;4998868;28;19920;-70
2022/01/14 10:50:56;;;;;;;;;;;;;;;1.13;100.00;102520.88;4998284;28;19920;-68
2022/01/14 10:53:42;;;;;;;;;;;;;;;1.42;100.00;102510.66;4984979;28;19924;-69
2022/01/14 10:56:27;;;;;;;;;;;;;;;1.16;100.00;102509.47;5012363;28;19940;-70
2022/01/14 10:59:10;;;;;;;;;;;;;;;1.37;100.00;102501.97;4998382;28;19979;-72
2022/01/14 11:01:54;;;;;;;;;;;;;;;1.34;100.00;102494.16;4998715;28;19920;-70
2022/01/14 11:04:39;;;;;;;;;;;;;;;1.45;100.00;102489.53;5013125;28;19936;-71
2022/01/14 11:07:23;;;;;;;;;;;;;;;1.57;100.00;102481.38;4998423;28;19924;-72
2022/01/14 11:10:23;;;;;;;;;;;;;;;1.10;100.00;102492.06;4998401;28;19964;-71
2022/01/14 11:13:08;;;;;;;;;;;;;;;1.04;100.00;102483.44;5012290;28;20273;-70
2022/01/14 11:15:51;;;;;;;;;;;;;;;1.14;100.00;102477.97;4998477;28;19979;-71
2022/01/14 11:18:37;;;;;;;;;;;;;;;1.35;100.00;102471.41;4998254;28;19971;-71
2022/01/14 11:24:24;;;;;;;;;;;;;;;1.32;100.00;102468.81;5013486;28;19921;-72
2022/01/14 11:27:08;;;;;;;;;;;;;;;1.42;100.00;102463.34;5012882;28;19971;-71
2022/01/14 11:29:57;;;;;;;;;;;;;;;1.35;100.00;102460.88;4998651;28;20058;-71
2022/01/14 11:32:54;;;;;;;;;;;;;;;1.53;100.00;102463.97;5013121;28;19921;-71
2022/01/14 11:35:38;;;;;;;;;;;;;;;1.28;100.00;102454.03;4985155;28;19929;-71
2022/01/14 11:38:42;;;;;;;;;;;;;;;1.00;100.00;102451.13;5001627;28;19940;-71
2022/01/14 11:41:45;;;;;;;;;;;;;;;1.34;100.00;102446.88;5001735;28;19920;-71
2022/01/14 11:44:42;;;;;;;;;;;;;;;1.52;100.00;102433.31;5015724;28;19966;-71
2022/01/14 11:47:26;;;;;;;;;;;;;;;1.54;100.00;102439.41;5016609;28;19975;-71
2022/01/14 11:50:19;;;;;;;;;;;;;;;1.43;100.00;102428.25;5016707;28;19920;-71
2022/01/14 11:53:03;;;;;;;;;;;;;;;1.32;100.00;102422.38;5015413;28;19967;-70
2022/01/14 11:55:47;;;;;;;;;;;;;;;1.57;100.00;102420.91;5016581;28;19920;-71
2022/01/14 11:58:31;;;;;;;;;;;;;;;1.62;100.00;102419.06;5016265;28;19922;-71
2022/01/14 12:01:31;;;;;;;;;;;;;;;1.64;100.00;102427.75;5016245;28;20431;-71
2022/01/14 12:04:15;;;;;;;;;;;;;;;1.80;100.00;102423.00;5001445;28;19920;-72
2022/01/14 12:06:59;;;;;;;;;;;;;;;1.63;100.00;102420.78;5016273;28;20011;-70
2022/01/14 12:10:00;;;;;;;;;;;;;;;1.77;100.00;102418.66;5001288;28;19944;-70
2022/01/14 12:12:44;;;;;;;;;;;;;;;1.84;100.00;102419.38;4987701;28;20063;-70
2022/01/14 12:15:55;;;;;;;;;;;;;;;1.96;100.00;102425.22;5001293;28;20288;-71
2022/01/14 12:18:57;;;;;;;;;;;;;;;2.06;100.00;102418.81;5016003;28;19975;-72
2022/01/14 12:21:44;;;;;;;;;;;;;;;2.17;100.00;102408.88;5016383;28;19920;-71
2022/01/14 12:24:30;;;;;;;;;;;;;;;1.96;100.00;102400.69;5015989;28;20305;-72
2022/01/14 12:27:17;;;;;;;;;;;;;;;1.96;100.00;102388.38;5014531;28;20051;-70
2022/01/14 12:30:21;;;;;;;;;;;;;;;2.02;100.00;102384.72;5001071;28;20047;-70
2022/01/14 12:33:05;;;;;;;;;;;;;;;2.28;100.00;102371.78;5016250;28;19964;-72
2022/01/14 12:35:49;;;;;;;;;;;;;;;2.30;100.00;102378.72;5015970;28;19920;-69
2022/01/14 12:38:33;;;;;;;;;;;;;;;2.23;100.00;102382.41;5015496;28;19920;-68
2022/01/14 12:41:23;;;;;;;;;;;;;;;2.38;100.00;102382.00;5000831;28;19975;-69
2022/01/14 12:44:07;;;;;;;;;;;;;;;2.13;100.00;102375.66;5015543;28;19928;-68
2022/01/14 12:47:00;;;;;;;;;;;;;;;2.18;100.00;102379.03;5014977;28;20389;-69
2022/01/14 12:49:44;;;;;;;;;;;;;;;2.05;100.00;102372.38;5000617;28;19964;-68
2022/01/14 12:52:40;;;;;;;;;;;;;;;2.28;100.00;102377.03;5000681;28;19944;-68
2022/01/14 12:55:24;;;;;;;;;;;;;;;2.13;100.00;102362.50;5015796;28;19968;-68
2022/01/14 12:58:10;;;;;;;;;;;;;;;1.98;100.00;102355.00;5015128;28;20339;-68
2022/01/14 13:01:06;;;;;;;;;;;;;;;2.34;100.00;102351.41;5000465;28;19971;-69
2022/01/14 13:03:50;;;;;;;;;;;;;;;2.47;100.00;102351.03;5014269;28;19960;-68
2022/01/14 13:06:44;;;;;;;;;;;;;;;1.89;100.00;102347.38;4999923;28;19968;-69
2022/01/14 13:09:30;;;;;;;;;;;;;;;2.10;100.00;102344.19;5000101;28;19925;-68
2022/01/14 13:12:15;;;;;;;;;;;;;;;1.98;100.00;102338.38;5000173;28;19924;-69
2022/01/14 13:15:00;;;;;;;;;;;;;;;1.81;100.00;102336.19;5015090;28;19920;-69
2022/01/14 13:17:53;;;;;;;;;;;;;;;1.93;100.00;102345.50;5014554;28;19967;-69
2022/01/14 13:20:37;;;;;;;;;;;;;;;1.99;100.00;102337.47;5015268;28;19921;-68
2022/01/14 13:23:21;;;;;;;;;;;;;;;1.81;100.00;102336.19;5014719;28;19920;-68
2022/01/14 13:26:08;;;;;;;;;;;;;;;1.79;100.00;102348.53;5014603;28;20284;-68
2022/01/14 13:28:56;;;;;;;;;;;;;;;1.58;100.00;102340.31;5015110;28;20269;-68
2022/01/14 13:31:44;;;;;;;;;;;;;;;1.66;100.00;102340.97;5014793;28;20230;-68
2022/01/14 13:34:29;;;;;;;;;;;;;;;1.78;100.00;102346.75;5014483;28;20403;-68
2022/01/14 13:37:13;;;;;;;;;;;;;;;1.85;100.00;102337.81;5014627;28;19943;-68
2022/01/14 13:40:07;;;;;;;;;;;;;;;1.68;100.00;102340.00;4999735;28;19963;-68
2022/01/14 13:43:19;;;;;;;;;;;;;;;2.05;100.00;102334.69;5013619;28;20008;-68
2022/01/14 13:46:06;;;;;;;;;;;;;;;2.12;100.00;102342.38;4999701;28;19967;-68
2022/01/14 13:48:53;;;;;;;;;;;;;;;2.25;100.00;102332.34;5000028;28;19960;-69
2022/01/14 13:51:38;;;;;;;;;;;;;;;2.08;100.00;102335.44;5013790;28;19920;-68
2022/01/14 13:54:22;;;;;;;;;;;;;;;2.02;100.00;102333.00;4999334;28;19920;-68
2022/01/14 13:57:16;;;;;;;;;;;;;;;1.82;100.00;102332.66;4999121;28;19920;-69
2022/01/14 14:00:11;;;;;;;;;;;;;;;1.84;100.00;102328.22;4999372;28;19919;-68
2022/01/14 14:02:55;;;;;;;;;;;;;;;1.84;100.00;102322.97;4999340;28;19920;-69
2022/01/14 14:05:42;;;;;;;;;;;;;;;2.04;100.00;102317.16;4998930;28;19928;-68
2022/01/14 14:17:15;;;;;;;;;;;;;;;1.49;100.00;102309.84;5013926;28;19959;-67
2022/01/14 14:19:59;;;;;;;;;;;;;;;1.37;100.00;102302.25;5013786;28;20005;-68
2022/01/14 14:22:43;;;;;;;;;;;;;;;1.28;100.00;102299.00;4985255;28;20317;-68
2022/01/14 14:25:29;;;;;;;;;;;;;;;1.27;100.00;102295.50;4998658;28;20067;-68
2022/01/14 14:28:14;;;;;;;;;;;;;;;1.36;100.00;102303.16;4998936;28;20300;-68
2022/01/14 14:30:57;;;;;;;;;;;;;;;1.41;100.00;102296.03;5013830;28;19981;-69
2022/01/14 14:33:41;;;;;;;;;;;;;;;1.54;100.00;102289.56;4998832;28;19947;-68
2022/01/14 14:36:27;;;;;;;;;;;;;;;1.77;100.00;102286.34;5013666;28;20016;-68
2022/01/14 14:39:11;;;;;;;;;;;;;;;1.88;100.00;102289.56;5013672;28;19972;-69